Main page
METAR-TAF:

METAR-TAF

Airports :

Wick Airport

Wick, Scotland

latitude: 58-27N, longitude: 003-05W, elevation: 39 m

Current weather observation

The report was made 31 minutes ago, at 17:20 UTC
Wind 20 kt from the South
Temperature 11°C
Humidity 82%
Pressure 1007 hPa
Visibility 10 km or more
no clouds below 1500 m and no cumulonimbus

METAR: EGPC 151720Z 19020KT CAVOK 11/08 Q1007

Time: 17:51 (17:51 UTC)

Forecast

The report was made 1 hour and 1 minutes ago, at 16:50 UTC
Forecast valid from 15 at 18 UTC to 16 at 03 UTC
Wind 15 kt from the South/Southeast
Visibility 10 km or more
Few clouds at a height of 1000 ft
Becoming
from 15 at 18 UTC to 15 at 21 UTC
Wind 12 kt from the Southwest

TAF: EGPC 151650Z 1518/1603 16015KT 9999 FEW010 BECMG 1518/1521 22012KT

Weather observations and forecasts of more than 4000 airports (METAR and TAF reports).

The available stations are represented by yellow and red dots on the map.

Hover mouse over dot to see the name of the station.

Then click to see weather observations and forecasts.

To change the map : click on the green buttons with a black cross to zoom in, on the green button with a dash to zoom out, or on the green arrows for adjacent maps.


METAR-TAF: